MMPR

Licenciado Gustavo Díaz Ordaz International Airport

Puerto Vallarta, Mexico
TAF MMPR 211012Z 2112/2218 03005KT P6SM SCT020 SCT070 BKN200 TX29/2120Z TN24/2112Z FM211800 24010KT P6SM SCT020 BKN100 BKN200 FM220400 23005KT 6SM HZ SCT080 BKN200 FM221800 23010KT P6SM SCT020 SCT200
Issued Valid From Valid To
Jun-21 @ 10:12 UTC
(8 hours ago)
Jun-21 @ 12:00 UTC
(6 hours ago)
Jun-22 @ 18:00 UTC
(in 24 hours)
Expired Click to View Jun-21 @ 12:00 to Jun-21 @ 18:00
TAF MMPR 211012Z 2112/2218 03005KT P6SM SCT020 SCT070 BKN200 TX29/2120Z TN24/2112Z
Wind Visibility Clouds
30° at 5 knots Greater than 6 miles
  • Scattered at 2,000' AGL
  • Scattered at 7,000' AGL
  • Broken at 20,000' AGL
From Jun-21 @ 18:00 to Jun-22 @ 04:00
FM211800 24010KT P6SM SCT020 BKN100 BKN200
Wind Visibility Clouds
240° at 10 knots Greater than 6 miles
  • Scattered at 2,000' AGL
  • Broken at 10,000' AGL
  • Broken at 20,000' AGL
From Jun-22 @ 04:00 to Jun-22 @ 18:00
FM220400 23005KT 6SM HZ SCT080 BKN200
Wind Visibility Clouds Conditions
230° at 5 knots 6 miles
  • Scattered at 8,000' AGL
  • Broken at 20,000' AGL
  • Haze
From Jun-22 @ 18:00 to Jun-22 @ 18:00
FM221800 23010KT P6SM SCT020 SCT200
Wind Visibility Clouds
230° at 10 knots Greater than 6 miles
  • Scattered at 2,000' AGL
  • Scattered at 20,000' AGL
TAF MMPR 211012Z 2112/2218 03005KT P6SM SCT020 SCT070 BKN200 TX29/2120Z TN24/2112Z FM211800 24010KT P6SM SCT020 BKN100 BKN200 FM220400 23005KT 6SM HZ SCT080 BKN200 FM221800 23010KT P6SM SCT020 SCT200
Issued Jun-21 @ 10:12 UTC
(8 hours ago)
Valid From Jun-21 @ 12:00 UTC
(6 hours ago)
Valid To Jun-22 @ 18:00 UTC
(in 24 hours)
Jun-21 @ 12:00 - Jun-21 @ 18:00
Wind Visibility
30° at 5 knots Greater than 6 miles
Clouds
  • Scattered at 2,000' AGL
  • Scattered at 7,000' AGL
  • Broken at 20,000' AGL
From Jun-21 @ 18:00 - Jun-22 @ 04:00
Wind Visibility
240° at 10 knots Greater than 6 miles
Clouds
  • Scattered at 2,000' AGL
  • Broken at 10,000' AGL
  • Broken at 20,000' AGL
From Jun-22 @ 04:00 - Jun-22 @ 18:00
Wind Visibility
230° at 5 knots 6 miles
Clouds
  • Scattered at 8,000' AGL
  • Broken at 20,000' AGL
Conditions
  • Haze
From Jun-22 @ 18:00 - Jun-22 @ 18:00
Wind Visibility
230° at 10 knots Greater than 6 miles
Clouds
  • Scattered at 2,000' AGL
  • Scattered at 20,000' AGL